createdAt,value
2023-05-06T00:00:25.592Z,0.0000
2023-05-06T00:01:26.583Z,0.0000
2023-05-06T00:02:27.590Z,0.0000
2023-05-06T00:03:28.958Z,0.0000
2023-05-06T00:04:29.219Z,0.0000
2023-05-06T00:05:29.371Z,0.0000
2023-05-06T00:06:29.910Z,0.0000
2023-05-06T00:07:30.720Z,0.0000
2023-05-06T00:08:31.481Z,0.0000
2023-05-06T00:09:31.863Z,0.0000
2023-05-06T00:10:32.518Z,0.0000
2023-05-06T00:11:33.122Z,0.0000
2023-05-06T00:12:33.866Z,0.0000
2023-05-06T00:13:34.571Z,0.0000
2023-05-06T00:14:35.376Z,0.0000
2023-05-06T00:15:36.267Z,0.0000
2023-05-06T00:16:37.231Z,0.0000
2023-05-06T00:17:38.488Z,0.0000
2023-05-06T00:18:39.270Z,0.0000
2023-05-06T00:19:40.126Z,0.0000
2023-05-06T00:20:40.743Z,0.0000
2023-05-06T00:21:41.130Z,0.0000
2023-05-06T00:22:41.734Z,0.0000
2023-05-06T00:23:42.541Z,0.0000
2023-05-06T00:24:43.543Z,0.0000
2023-05-06T00:25:43.759Z,0.0000
2023-05-06T00:26:44.115Z,0.0000
2023-05-06T00:27:45.115Z,0.0000
2023-05-06T00:28:45.410Z,0.0000
2023-05-06T00:29:45.935Z,0.0000
2023-05-06T00:30:46.742Z,0.0000
2023-05-06T00:31:47.386Z,0.0000
2023-05-06T00:32:47.798Z,0.0000
2023-05-06T00:33:48.444Z,0.0000
2023-05-06T00:34:49.000Z,0.0000
2023-05-06T00:35:49.677Z,0.0000
2023-05-06T00:36:50.270Z,0.0000
2023-05-06T00:37:51.198Z,0.0000
2023-05-06T00:38:51.613Z,0.0000
2023-05-06T00:39:52.370Z,0.0000
2023-05-06T00:40:53.073Z,0.0000
2023-05-06T00:41:53.780Z,0.0000
2023-05-06T00:42:54.636Z,0.0000
2023-05-06T00:43:55.063Z,0.0000
2023-05-06T00:44:55.596Z,0.0000
2023-05-06T00:45:55.606Z,0.0000
2023-05-06T00:46:56.247Z,0.0000
2023-05-06T00:47:56.961Z,0.0000
2023-05-06T00:48:57.496Z,0.0000
2023-05-06T00:49:58.040Z,0.0000
2023-05-06T00:50:58.575Z,0.0000
2023-05-06T00:51:59.039Z,0.0000
2023-05-06T00:52:59.786Z,0.0000
2023-05-06T00:54:00.470Z,0.0000
2023-05-06T00:55:01.079Z,0.0000
2023-05-06T00:56:01.762Z,0.0000
2023-05-06T00:57:02.458Z,0.0000
2023-05-06T00:58:03.441Z,0.0000
2023-05-06T00:59:03.956Z,0.0000
2023-05-06T01:00:04.669Z,0.0000
2023-05-06T01:01:05.726Z,0.0000
2023-05-06T01:02:06.675Z,0.0000
2023-05-06T01:03:07.748Z,0.0000
2023-05-06T01:04:08.398Z,0.0000
2023-05-06T01:05:09.263Z,0.0000
2023-05-06T01:06:09.850Z,0.0000
2023-05-06T01:07:10.405Z,0.0000
2023-05-06T01:08:11.178Z,0.0000
2023-05-06T01:09:12.046Z,0.0000
2023-05-06T01:10:12.739Z,0.0000
2023-05-06T01:11:15.625Z,0.0000
2023-05-06T01:12:13.989Z,0.0000
2023-05-06T01:13:15.184Z,0.0000
2023-05-06T01:14:16.073Z,0.0000
2023-05-06T01:15:16.251Z,0.0000
2023-05-06T01:16:17.350Z,0.0000
2023-05-06T01:17:18.461Z,0.0000
2023-05-06T01:18:18.709Z,0.0000
2023-05-06T01:19:19.406Z,0.0000
2023-05-06T01:20:20.244Z,0.0000
2023-05-06T01:21:20.965Z,0.0000
2023-05-06T01:22:21.835Z,0.0000
2023-05-06T01:23:22.586Z,0.0000
2023-05-06T01:24:23.476Z,0.0000
2023-05-06T01:25:23.790Z,0.0000
2023-05-06T01:26:24.618Z,0.0000
2023-05-06T01:27:25.569Z,0.0000
2023-05-06T01:28:26.496Z,0.0000
2023-05-06T01:29:27.354Z,0.0000
2023-05-06T01:30:28.502Z,0.0000
2023-05-06T01:31:29.407Z,0.0000
2023-05-06T01:32:30.480Z,0.0000
2023-05-06T01:33:31.568Z,0.0000
2023-05-06T01:34:32.508Z,0.0000
2023-05-06T01:35:32.636Z,0.0000
2023-05-06T01:36:33.360Z,0.0000
2023-05-06T01:37:34.511Z,0.0000
2023-05-06T01:38:35.238Z,0.0000
2023-05-06T01:39:36.063Z,0.0000
2023-05-06T01:40:36.973Z,0.0000
2023-05-06T01:41:37.616Z,0.0000
2023-05-06T01:42:38.564Z,0.0000
2023-05-06T01:43:39.236Z,0.0000
2023-05-06T01:44:40.224Z,0.0000
2023-05-06T01:45:41.110Z,0.0000
2023-05-06T01:46:42.215Z,0.0000
2023-05-06T01:47:43.469Z,0.0000
2023-05-06T01:48:44.335Z,0.0000
2023-05-06T01:49:45.271Z,0.0000
2023-05-06T01:50:46.287Z,0.0000
2023-05-06T01:51:47.385Z,0.0000
2023-05-06T01:52:48.280Z,0.0000
2023-05-06T01:53:49.059Z,0.0000
2023-05-06T01:54:50.000Z,0.0000
2023-05-06T01:55:50.937Z,0.0000
2023-05-06T01:56:51.763Z,0.0000
2023-05-06T01:57:52.687Z,0.0000
2023-05-06T01:58:53.383Z,0.0000
2023-05-06T01:59:54.248Z,0.0000
2023-05-06T02:00:55.128Z,0.0000
2023-05-06T02:01:56.062Z,0.0000
2023-05-06T02:02:56.979Z,0.0000
2023-05-06T02:03:57.567Z,0.0000
2023-05-06T02:04:58.783Z,0.0000
2023-05-06T02:05:59.482Z,0.0000
2023-05-06T02:07:00.312Z,0.0000
2023-05-06T02:08:01.240Z,0.0000
2023-05-06T02:09:02.051Z,0.0000
2023-05-06T02:10:02.971Z,0.0000
2023-05-06T02:11:03.629Z,0.0000
2023-05-06T02:12:04.455Z,0.0000
2023-05-06T02:13:05.419Z,0.0000
2023-05-06T02:14:06.288Z,0.0000
2023-05-06T02:15:07.322Z,0.0000
2023-05-06T02:16:08.423Z,0.0000
2023-05-06T02:17:09.677Z,0.0000
2023-05-06T02:18:10.807Z,0.0000
2023-05-06T02:19:11.513Z,0.0000
2023-05-06T02:20:12.407Z,0.0000
2023-05-06T02:21:13.119Z,0.0000
2023-05-06T02:22:13.953Z,0.0000
2023-05-06T02:23:14.624Z,0.0000
2023-05-06T02:24:15.624Z,0.0000
2023-05-06T02:25:16.508Z,0.0000
2023-05-06T02:26:17.322Z,0.0000
2023-05-06T02:27:18.317Z,0.0000
2023-05-06T02:28:19.258Z,0.0000
2023-05-06T02:29:20.177Z,0.0000
2023-05-06T02:30:21.007Z,0.0000
2023-05-06T02:31:21.890Z,0.0000
2023-05-06T02:32:21.990Z,0.0000
2023-05-06T02:33:22.750Z,0.0000
2023-05-06T02:34:23.437Z,0.0000
2023-05-06T02:35:24.045Z,0.0000
2023-05-06T02:36:24.836Z,0.0000
2023-05-06T02:37:25.291Z,0.0000
2023-05-06T02:38:26.017Z,0.0000
2023-05-06T02:39:26.511Z,0.0000
2023-05-06T02:40:27.222Z,0.0000
2023-05-06T02:41:28.130Z,0.0000
2023-05-06T02:42:29.077Z,0.0000
2023-05-06T02:43:30.275Z,0.0000
2023-05-06T02:44:30.384Z,0.0000
2023-05-06T02:45:31.350Z,0.0000
2023-05-06T02:46:32.100Z,0.0000
2023-05-06T02:47:33.041Z,0.0000
2023-05-06T02:48:33.955Z,0.0000
2023-05-06T02:49:34.878Z,0.0000
2023-05-06T02:50:35.809Z,0.0000
2023-05-06T02:51:36.570Z,0.0000
2023-05-06T02:52:37.494Z,0.0000
2023-05-06T02:53:38.224Z,0.0000
2023-05-06T02:54:39.105Z,0.0000
2023-05-06T02:55:40.048Z,0.0000
2023-05-06T02:56:40.764Z,0.0000
2023-05-06T02:57:41.716Z,0.0000
2023-05-06T02:58:42.437Z,0.0000
2023-05-06T02:59:43.395Z,0.0000
2023-05-06T03:00:44.387Z,0.0000
2023-05-06T03:01:45.381Z,0.0000
2023-05-06T03:02:46.322Z,0.0000
2023-05-06T03:03:47.160Z,0.0000
2023-05-06T03:04:48.257Z,0.0000
2023-05-06T03:05:49.364Z,0.0000
2023-05-06T03:06:50.110Z,0.0000
2023-05-06T03:07:51.031Z,0.0000
2023-05-06T03:08:51.802Z,0.0000
2023-05-06T03:09:52.685Z,0.0000
2023-05-06T03:10:53.473Z,0.0000
2023-05-06T03:11:54.436Z,0.0000
2023-05-06T03:12:55.363Z,0.0000
2023-05-06T03:13:56.384Z,0.0000
2023-05-06T03:14:57.459Z,0.0000
2023-05-06T03:15:58.261Z,0.0000
2023-05-06T03:16:59.368Z,0.0000
2023-05-06T03:17:59.705Z,0.0000
2023-05-06T03:19:00.675Z,0.0000
2023-05-06T03:20:01.729Z,0.0000
2023-05-06T03:21:02.527Z,0.0000
2023-05-06T03:22:03.806Z,0.0000
2023-05-06T03:23:04.674Z,0.0000
2023-05-06T03:24:05.577Z,0.0000
2023-05-06T03:25:06.512Z,0.0000
2023-05-06T03:26:06.598Z,0.0000
2023-05-06T03:27:07.640Z,0.0000
2023-05-06T03:28:08.607Z,0.0000
2023-05-06T03:29:09.428Z,0.0000
2023-05-06T03:30:10.517Z,0.0000
2023-05-06T03:31:11.382Z,0.0000
2023-05-06T03:32:11.536Z,0.0000
2023-05-06T03:33:12.871Z,0.0000
2023-05-06T03:34:13.741Z,0.0000
2023-05-06T03:35:14.475Z,0.0000
2023-05-06T03:36:15.270Z,0.0000
2023-05-06T03:37:16.303Z,0.0000
2023-05-06T03:38:17.196Z,0.0000
2023-05-06T03:39:18.294Z,0.0000
2023-05-06T03:40:19.264Z,0.0000
2023-05-06T03:41:19.993Z,0.0000
2023-05-06T03:42:20.724Z,0.0000
2023-05-06T03:43:21.470Z,0.0000
2023-05-06T03:44:22.461Z,0.0000
2023-05-06T03:45:23.383Z,0.0000
2023-05-06T03:46:24.390Z,0.0000
2023-05-06T03:47:25.657Z,0.0000
2023-05-06T03:48:26.759Z,0.0000
2023-05-06T03:49:27.899Z,0.0000
2023-05-06T03:50:28.978Z,0.0000
2023-05-06T03:51:29.987Z,0.0000
2023-05-06T03:52:31.021Z,0.0000
2023-05-06T03:53:31.906Z,0.0000
2023-05-06T03:54:32.883Z,0.0000
2023-05-06T03:55:33.189Z,0.0000
2023-05-06T03:56:34.016Z,0.0000
2023-05-06T03:57:35.296Z,0.0000
2023-05-06T03:58:36.338Z,0.0000
2023-05-06T03:59:37.239Z,0.0000
2023-05-06T04:00:38.355Z,0.0000
2023-05-06T04:01:39.299Z,0.0000
2023-05-06T04:02:39.653Z,0.0000
2023-05-06T04:03:40.015Z,0.0000
2023-05-06T04:04:39.976Z,0.0000
2023-05-06T04:05:41.009Z,0.0000
2023-05-06T04:06:41.947Z,0.0000
2023-05-06T04:07:42.875Z,0.0000
2023-05-06T04:08:43.744Z,0.0000
2023-05-06T04:09:44.738Z,0.0000
2023-05-06T04:10:45.857Z,0.0000
2023-05-06T04:11:45.845Z,0.0000
2023-05-06T04:12:46.881Z,0.0000
2023-05-06T04:13:46.911Z,0.0000
2023-05-06T04:14:47.922Z,0.0000
2023-05-06T04:15:48.723Z,0.0000
2023-05-06T04:16:49.780Z,1.0465
2023-05-06T04:17:50.636Z,5.6250
2023-05-06T04:18:51.687Z,5.6250
2023-05-06T04:19:52.578Z,5.6250
2023-05-06T04:20:53.444Z,5.6250
2023-05-06T04:21:54.565Z,5.6250
2023-05-06T04:22:55.389Z,5.6250
2023-05-06T04:23:56.344Z,5.6250
2023-05-06T04:24:57.416Z,5.6250
2023-05-06T04:25:58.244Z,5.6250
2023-05-06T04:26:59.190Z,8.6932
2023-05-06T04:28:00.155Z,11.2500
2023-05-06T04:29:01.111Z,12.4006
2023-05-06T04:30:02.404Z,14.5739
2023-05-06T04:31:03.187Z,11.2500
2023-05-06T04:32:04.404Z,11.2500
2023-05-06T04:33:05.525Z,11.2500
2023-05-06T04:34:05.885Z,11.2500
2023-05-06T04:35:07.117Z,13.2955
2023-05-06T04:36:08.070Z,16.8750
2023-05-06T04:37:09.173Z,16.8750
2023-05-06T04:38:09.948Z,16.8750
2023-05-06T04:39:11.027Z,17.5142
2023-05-06T04:40:12.090Z,22.5000
2023-05-06T04:41:12.956Z,22.5000
2023-05-06T04:42:14.147Z,22.5000
2023-05-06T04:43:15.082Z,22.5000
2023-05-06T04:44:16.169Z,22.5000
2023-05-06T04:45:17.242Z,27.9972
2023-05-06T04:46:18.395Z,28.1250
2023-05-06T04:47:19.513Z,28.1250
2023-05-06T04:48:20.700Z,28.3807
2023-05-06T04:49:21.829Z,33.7500
2023-05-06T04:50:22.947Z,35.5398
2023-05-06T04:51:24.006Z,37.2017
2023-05-06T04:52:24.108Z,39.3750
2023-05-06T04:53:25.575Z,34.2614
2023-05-06T04:54:26.569Z,33.7500
2023-05-06T04:55:26.986Z,33.7500
2023-05-06T04:56:27.952Z,33.7500
2023-05-06T04:57:29.067Z,33.7500
2023-05-06T04:58:30.161Z,33.7500
2023-05-06T04:59:31.137Z,33.7500
2023-05-06T05:00:32.318Z,33.7500
2023-05-06T05:01:33.561Z,38.2244
2023-05-06T05:02:33.934Z,36.6279
2023-05-06T05:03:34.686Z,33.7500
2023-05-06T05:04:34.622Z,33.7500
2023-05-06T05:05:34.684Z,33.7500
2023-05-06T05:06:35.584Z,33.7500
2023-05-06T05:07:36.743Z,33.7500
2023-05-06T05:08:37.719Z,37.3295
2023-05-06T05:09:38.984Z,44.7443
2023-05-06T05:11:39.704Z,50.6250
2023-05-06T05:12:41.044Z,48.0682
2023-05-06T05:13:40.998Z,45.0000
2023-05-06T05:14:42.148Z,45.0000
2023-05-06T05:15:42.315Z,50.8866
2023-05-06T05:16:43.636Z,58.6790
2023-05-06T05:18:44.427Z,61.8750
2023-05-06T05:19:44.625Z,58.7355
2023-05-06T05:20:45.665Z,59.4460
2023-05-06T05:21:46.825Z,61.8750
2023-05-06T05:22:47.778Z,61.8750
2023-05-06T05:23:49.014Z,68.1392
2023-05-06T05:24:50.124Z,77.3438
2023-05-06T05:25:50.813Z,79.2733
2023-05-06T05:26:51.984Z,80.2841
2023-05-06T05:27:52.926Z,78.7500
2023-05-06T05:28:54.000Z,81.3068
2023-05-06T05:29:55.167Z,84.3750
2023-05-06T05:30:56.379Z,84.3750
2023-05-06T05:31:57.518Z,84.3750
2023-05-06T05:32:59.008Z,80.9233
2023-05-06T05:33:59.021Z,84.3750
2023-05-06T05:35:00.303Z,74.6591
2023-05-06T05:36:01.300Z,67.5000
2023-05-06T05:37:02.492Z,65.3267
2023-05-06T05:38:03.532Z,58.5511
2023-05-06T05:39:04.852Z,56.6335
2023-05-06T05:40:06.021Z,64.1761
2023-05-06T05:41:07.067Z,70.5682
2023-05-06T05:42:08.376Z,73.1250
2023-05-06T05:43:09.597Z,73.1250
2023-05-06T05:44:10.764Z,76.1932
2023-05-06T05:45:11.214Z,76.3953
2023-05-06T05:46:12.280Z,71.7188
2023-05-06T05:47:12.383Z,66.9767
2023-05-06T05:48:13.671Z,68.5227
2023-05-06T05:49:14.870Z,76.8324
2023-05-06T05:50:16.155Z,84.2472
2023-05-06T05:52:16.938Z,108.7926
2023-05-06T05:53:18.166Z,121.7045
2023-05-06T05:54:18.145Z,109.2297
2023-05-06T05:55:19.454Z,93.7074
2023-05-06T05:56:20.038Z,88.9535
2023-05-06T05:57:21.097Z,80.0284
2023-05-06T05:58:22.605Z,82.7131
2023-05-06T06:00:23.566Z,69.1619
2023-05-06T06:01:23.504Z,67.5000
2023-05-06T06:02:24.556Z,67.5000
2023-05-06T06:03:25.652Z,68.5465
2023-05-06T06:04:26.710Z,69.2411
2023-05-06T06:05:27.351Z,68.8081
2023-05-06T06:06:28.661Z,74.2756
2023-05-06T06:07:29.690Z,85.5256
2023-05-06T06:08:30.885Z,100.2273
2023-05-06T06:09:32.103Z,105.2131
2023-05-06T06:10:33.154Z,107.3864
2023-05-06T06:11:34.369Z,116.4631
2023-05-06T06:12:35.411Z,137.0455
2023-05-06T06:13:35.879Z,149.9128
2023-05-06T06:14:36.993Z,148.1676
2023-05-06T06:15:38.277Z,140.6250
2023-05-06T06:16:38.762Z,147.0349
2023-05-06T06:17:38.660Z,129.7674
2023-05-06T06:18:38.850Z,117.2093
2023-05-06T06:19:39.985Z,102.5284
2023-05-06T06:20:41.252Z,95.6250
2023-05-06T06:21:42.356Z,95.6250
2023-05-06T06:22:43.426Z,90.5114
2023-05-06T06:23:44.467Z,84.3750
2023-05-06T06:24:45.595Z,84.3750
2023-05-06T06:25:45.925Z,84.7674
2023-05-06T06:26:46.941Z,84.3750
2023-05-06T06:27:48.202Z,89.6165
2023-05-06T06:28:49.523Z,90.0000
2023-05-06T06:29:50.520Z,90.1278
2023-05-06T06:30:51.845Z,90.2557
2023-05-06T06:31:51.897Z,84.3750
2023-05-06T06:32:51.932Z,84.3750
2023-05-06T06:33:53.136Z,78.6222
2023-05-06T06:34:54.442Z,78.7500
2023-05-06T06:35:54.632Z,82.6744
2023-05-06T06:36:55.853Z,82.8409
2023-05-06T06:37:57.116Z,81.6903
2023-05-06T06:38:58.360Z,64.8153
2023-05-06T06:39:58.172Z,62.3983
2023-05-06T06:40:59.418Z,68.5227
2023-05-06T06:42:00.616Z,86.8040
2023-05-06T06:43:01.644Z,101.2500
2023-05-06T06:44:02.793Z,100.4830
2023-05-06T06:45:04.075Z,91.9176
2023-05-06T06:46:05.239Z,75.8097
2023-05-06T06:47:06.551Z,82.5852
2023-05-06T06:48:06.677Z,88.4302
2023-05-06T06:49:06.708Z,82.9360
2023-05-06T06:50:07.737Z,78.8778
2023-05-06T06:52:08.582Z,85.7812
2023-05-06T06:53:09.908Z,97.8488
2023-05-06T06:54:11.102Z,100.6108
2023-05-06T06:55:11.696Z,105.1744
2023-05-06T06:56:11.624Z,111.0610
2023-05-06T06:57:11.611Z,110.2762
2023-05-06T06:58:12.666Z,99.8438
2023-05-06T06:59:14.040Z,79.2614
2023-05-06T07:00:15.052Z,75.2983
2023-05-06T07:03:17.628Z,61.8750
2023-05-06T07:04:18.933Z,62.5610
2023-05-06T07:05:19.941Z,74.4643
2023-05-06T07:06:20.790Z,120.5357
2023-05-06T07:07:21.131Z,167.5727
2023-05-06T07:08:21.659Z,166.2645
2023-05-06T07:09:22.401Z,171.1046
2023-05-06T07:10:22.668Z,159.9107
2023-05-06T07:11:23.041Z,119.6948
2023-05-06T07:12:23.649Z,96.5407
2023-05-06T07:13:24.469Z,92.4855
2023-05-06T07:14:25.224Z,89.4643
2023-05-06T07:16:25.796Z,67.5000
2023-05-06T07:17:26.150Z,73.4062
2023-05-06T07:18:26.106Z,92.4855
2023-05-06T07:19:26.279Z,116.5552
2023-05-06T07:20:27.329Z,138.7936
2023-05-06T07:21:28.459Z,163.2558
2023-05-06T07:22:28.616Z,168.6192
2023-05-06T07:23:31.897Z,177.4432
2023-05-06T07:24:30.885Z,178.9286
2023-05-06T07:25:32.059Z,201.6051
2023-05-06T07:26:33.414Z,148.5511
2023-05-06T07:27:34.711Z,142.5426
2023-05-06T07:28:35.941Z,150.0852
2023-05-06T07:29:36.105Z,156.0611
2023-05-06T07:30:37.438Z,158.7784
2023-05-06T07:31:37.768Z,190.4651
2023-05-06T07:32:38.927Z,218.9915
2023-05-06T07:33:40.252Z,221.9318
2023-05-06T07:34:41.359Z,202.5000
2023-05-06T07:35:41.525Z,204.9855
2023-05-06T07:36:42.764Z,169.9006
2023-05-06T07:37:43.763Z,149.1903
2023-05-06T07:38:44.800Z,131.2926
2023-05-06T07:39:45.660Z,131.5483
2023-05-06T07:40:46.822Z,114.1619
2023-05-06T07:41:47.349Z,115.6555
2023-05-06T07:42:48.253Z,111.9643
2023-05-06T07:43:48.416Z,110.4070
2023-05-06T07:44:49.208Z,118.1250
2023-05-06T07:45:50.200Z,116.4787
2023-05-06T07:46:51.244Z,112.6308
2023-05-06T07:47:51.077Z,108.8839
2023-05-06T07:48:51.864Z,118.1250
2023-05-06T07:49:52.597Z,118.1250
2023-05-06T07:50:53.018Z,116.2936
2023-05-06T07:51:54.902Z,140.2415
2023-05-06T07:52:54.995Z,163.9099
2023-05-06T07:53:55.624Z,159.2006
2023-05-06T07:54:56.606Z,130.1599
2023-05-06T07:55:56.779Z,116.2969
2023-05-06T07:56:57.226Z,112.5000
2023-05-06T07:57:58.506Z,116.3352
2023-05-06T07:58:59.778Z,115.6960
2023-05-06T07:59:59.982Z,112.5000
2023-05-06T08:01:01.282Z,117.1023
2023-05-06T08:02:02.580Z,138.4517
2023-05-06T08:03:04.060Z,169.6657
2023-05-06T08:04:04.152Z,156.5156
2023-05-06T08:05:04.913Z,141.8906
2023-05-06T08:07:12.970Z,119.4572
2023-05-06T08:08:14.214Z,114.8011
2023-05-06T08:09:22.241Z,112.5000
2023-05-06T08:10:15.798Z,112.5000
2023-05-06T08:11:18.823Z,112.5000
2023-05-06T08:12:17.599Z,114.3750
2023-05-06T08:13:18.900Z,127.4574
2023-05-06T08:14:20.137Z,151.1080
2023-05-06T08:15:20.129Z,188.8954
2023-05-06T08:16:22.576Z,192.2727
2023-05-06T08:17:21.800Z,198.9329
2023-05-06T08:18:23.496Z,206.6047
2023-05-06T08:19:23.469Z,220.9448
2023-05-06T08:20:23.279Z,236.1192
2023-05-06T08:21:24.153Z,249.0341
2023-05-06T08:22:25.360Z,263.4801
2023-05-06T08:23:26.412Z,274.4744
2023-05-06T08:24:27.292Z,262.7131
2023-05-06T08:25:27.416Z,231.4099
2023-05-06T08:26:28.509Z,194.0625
2023-05-06T08:27:29.298Z,181.0227
2023-05-06T08:28:30.194Z,224.4886
2023-05-06T08:29:31.008Z,238.0398
2023-05-06T08:30:32.138Z,231.9034
2023-05-06T08:31:33.191Z,210.6818
2023-05-06T08:32:33.300Z,226.4389
2023-05-06T08:33:33.512Z,255.7413
2023-05-06T08:34:33.759Z,249.0698
2023-05-06T08:35:34.010Z,232.8488
2023-05-06T08:36:34.831Z,215.4119
2023-05-06T08:37:35.906Z,212.9830
2023-05-06T08:38:36.809Z,198.5369
2023-05-06T08:39:37.822Z,216.4347
2023-05-06T08:40:38.685Z,232.0312
2023-05-06T08:41:39.972Z,235.8665
2023-05-06T08:42:41.122Z,216.5625
2023-05-06T08:43:42.183Z,197.5142
2023-05-06T08:44:43.213Z,184.6023
2023-05-06T08:45:44.163Z,190.6108
2023-05-06T08:46:44.451Z,192.5581
2023-05-06T08:47:45.482Z,196.8750
2023-05-06T08:48:46.320Z,193.4233
2023-05-06T08:49:47.441Z,182.0455
2023-05-06T08:50:48.468Z,191.6335
2023-05-06T08:51:49.712Z,206.9744
2023-05-06T08:52:51.036Z,191.2500
2023-05-06T08:53:52.188Z,170.4119
2023-05-06T08:54:52.295Z,169.9273
2023-05-06T08:55:52.485Z,185.8866
2023-05-06T08:56:53.772Z,214.0057
2023-05-06T08:57:54.276Z,232.0982
2023-05-06T08:58:55.369Z,244.6875
2023-05-06T08:59:56.647Z,249.2898
2023-05-06T09:00:57.487Z,240.9801
2023-05-06T09:01:57.719Z,242.3983
2023-05-06T09:02:58.853Z,235.8482
2023-05-06T09:03:59.617Z,206.1628
2023-05-06T09:05:00.847Z,191.5057
2023-05-06T09:06:00.854Z,183.9244
2023-05-06T09:07:01.990Z,177.0597
2023-05-06T09:08:03.266Z,166.1932
2023-05-06T09:09:04.508Z,164.5312
2023-05-06T09:10:05.347Z,180.1278
2023-05-06T09:11:06.380Z,191.1222
2023-05-06T09:12:07.610Z,179.2330
2023-05-06T09:13:08.684Z,164.0199
2023-05-06T09:14:09.840Z,166.7045
2023-05-06T09:15:10.741Z,179.2330
2023-05-06T09:16:11.688Z,197.1366
2023-05-06T09:17:12.849Z,208.3807
2023-05-06T09:18:13.066Z,222.7762
2023-05-06T09:19:14.017Z,220.6534
2023-05-06T09:20:14.817Z,204.9290
2023-05-06T09:21:15.456Z,191.5116
2023-05-06T09:22:15.609Z,190.7267
2023-05-06T09:23:16.603Z,194.7017
2023-05-06T09:24:17.647Z,193.0398
2023-05-06T09:25:18.603Z,199.0483
2023-05-06T09:26:19.575Z,213.7500
2023-05-06T09:27:20.108Z,216.8304
2023-05-06T09:28:21.395Z,203.6506
2023-05-06T09:29:22.406Z,209.4034
2023-05-06T09:30:23.625Z,215.9233
2023-05-06T09:31:24.368Z,207.9942
2023-05-06T09:32:25.377Z,201.8608
2023-05-06T09:33:25.905Z,190.6875
2023-05-06T09:34:26.986Z,172.0739
2023-05-06T09:35:27.037Z,165.6105
2023-05-06T09:36:28.381Z,160.5682
2023-05-06T09:37:29.399Z,149.5739
2023-05-06T09:38:30.358Z,146.8892
2023-05-06T09:39:31.351Z,153.2812
2023-05-06T09:40:32.268Z,160.1847
2023-05-06T09:41:33.265Z,162.8693
2023-05-06T09:42:34.190Z,167.2159
2023-05-06T09:43:35.206Z,186.1364
2023-05-06T09:44:36.538Z,205.9517
2023-05-06T09:45:37.336Z,198.5369
2023-05-06T09:46:38.751Z,187.7983
2023-05-06T09:47:39.079Z,193.8663
2023-05-06T09:48:39.096Z,203.5465
2023-05-06T09:49:40.064Z,194.0625
2023-05-06T09:50:40.975Z,188.9489
2023-05-06T09:51:41.938Z,186.5199
2023-05-06T09:52:43.052Z,221.2926
2023-05-06T09:53:44.107Z,286.2358
2023-05-06T09:54:45.021Z,310.0142
2023-05-06T09:55:45.131Z,320.1017
2023-05-06T09:56:46.188Z,328.5511
2023-05-06T09:57:46.468Z,349.0116
2023-05-06T09:58:47.529Z,337.7557
2023-05-06T09:59:48.656Z,309.8864
2023-05-06T10:00:48.836Z,330.5669
2023-05-06T10:01:49.247Z,320.6250
2023-05-06T10:02:49.448Z,274.3169
2023-05-06T10:03:49.617Z,209.4969
2023-05-06T10:04:50.229Z,181.7411
2023-05-06T10:05:50.870Z,181.8750
2023-05-06T10:06:51.821Z,189.2045
2023-05-06T10:07:52.869Z,190.4830
2023-05-06T10:08:53.884Z,188.0540
2023-05-06T10:09:54.981Z,191.8892
2023-05-06T10:10:56.014Z,191.6616
2023-05-06T10:11:57.044Z,193.0398
2023-05-06T10:12:57.181Z,197.3983
2023-05-06T10:13:58.294Z,199.4318
2023-05-06T10:14:58.440Z,197.2674
2023-05-06T10:15:59.605Z,200.8381
2023-05-06T10:16:59.939Z,203.5465
2023-05-06T10:18:00.253Z,203.1541
2023-05-06T10:19:01.221Z,203.1392
2023-05-06T10:20:01.881Z,208.3866
2023-05-06T10:21:02.818Z,208.2528
2023-05-06T10:22:05.587Z,211.3210
2023-05-06T10:23:04.580Z,218.3036
2023-05-06T10:24:05.403Z,225.0000
2023-05-06T10:25:06.567Z,229.4744
2023-05-06T10:26:07.719Z,232.2869
2023-05-06T10:27:08.766Z,235.9943
2023-05-06T10:28:23.170Z,246.4286
2023-05-06T10:29:13.412Z,247.5000
2023-05-06T10:30:14.560Z,247.8835
2023-05-06T10:31:15.691Z,262.3296
2023-05-06T10:32:15.608Z,304.1425
2023-05-06T10:33:16.948Z,329.1903
2023-05-06T10:34:18.025Z,326.6335
2023-05-06T10:36:18.865Z,342.7415
2023-05-06T10:37:19.935Z,375.0852
2023-05-06T10:38:20.875Z,354.7585
2023-05-06T10:39:21.931Z,373.1676
2023-05-06T10:40:23.098Z,404.6165
2023-05-06T10:41:24.065Z,399.3750
2023-05-06T10:42:25.453Z,400.0142
2023-05-06T10:43:26.495Z,405.0000
2023-05-06T10:44:27.619Z,390.8097
2023-05-06T10:45:28.769Z,401.0369
2023-05-06T10:46:29.801Z,391.5767
2023-05-06T10:47:30.900Z,323.9489
2023-05-06T10:48:32.009Z,319.0909
2023-05-06T10:49:33.340Z,391.1932
2023-05-06T10:50:34.482Z,450.6392
2023-05-06T10:51:35.397Z,364.9858
2023-05-06T10:52:36.652Z,330.7244
2023-05-06T10:53:37.546Z,331.8750
2023-05-06T10:56:39.279Z,369.2046
2023-05-06T10:57:40.292Z,367.5426
2023-05-06T10:58:41.474Z,360.8949
2023-05-06T10:59:42.599Z,377.2585
2023-05-06T11:00:43.432Z,370.8665
2023-05-06T11:01:43.711Z,353.1977
2023-05-06T11:02:49.398Z,318.7074
2023-05-06T11:03:49.983Z,294.3314
2023-05-06T11:04:51.004Z,279.2046
2023-05-06T11:05:52.139Z,303.3665
2023-05-06T11:06:53.195Z,325.6108
2023-05-06T11:07:54.322Z,387.7415
2023-05-06T11:08:55.369Z,410.1136
2023-05-06T11:09:56.389Z,441.0511
2023-05-06T11:10:57.404Z,390.5540
2023-05-06T11:11:58.333Z,346.9602
2023-05-06T11:12:58.557Z,288.9680
2023-05-06T11:13:59.728Z,330.0000
2023-05-06T11:15:00.906Z,361.5341
2023-05-06T11:16:02.105Z,409.4744
2023-05-06T11:17:03.630Z,437.4716
2023-05-06T11:18:04.755Z,437.4419
2023-05-06T11:19:04.856Z,438.3575
2023-05-06T11:21:05.230Z,460.0727
2023-05-06T11:22:06.246Z,448.2589
2023-05-06T11:23:06.383Z,405.2616
2023-05-06T11:24:07.293Z,426.3494
2023-05-06T11:25:08.298Z,434.4034
2023-05-06T11:26:09.329Z,368.9489
2023-05-06T11:27:10.671Z,278.3097
2023-05-06T11:28:10.900Z,244.4196
2023-05-06T11:29:11.508Z,231.5407
2023-05-06T11:30:12.785Z,215.7955
2023-05-06T11:31:12.661Z,203.8081
2023-05-06T11:32:12.865Z,197.0058
2023-05-06T11:33:14.031Z,199.9432
2023-05-06T11:34:15.291Z,202.6278
2023-05-06T11:35:16.215Z,206.0795
2023-05-06T11:36:17.390Z,226.5341
2023-05-06T11:37:18.519Z,279.0767
2023-05-06T11:38:18.584Z,349.7965
2023-05-06T11:39:19.633Z,337.1165
2023-05-06T11:40:19.875Z,320.3634
2023-05-06T11:41:20.852Z,302.3438
2023-05-06T11:42:21.769Z,344.7869
2023-05-06T11:43:22.830Z,359.7443
2023-05-06T11:44:23.891Z,370.4829
2023-05-06T11:46:24.595Z,380.8381
2023-05-06T11:47:24.736Z,400.9448
2023-05-06T11:48:24.750Z,536.2064
2023-05-06T11:49:26.063Z,794.4034
2023-05-06T11:50:26.245Z,455.1017
2023-05-06T11:51:27.415Z,352.4574
2023-05-06T11:52:27.503Z,353.5901
2023-05-06T11:53:27.840Z,438.4884
2023-05-06T11:55:28.991Z,297.4390
2023-05-06T11:56:29.475Z,288.0523
2023-05-06T11:57:30.635Z,268.4659
2023-05-06T11:58:30.773Z,265.2907
2023-05-06T11:59:31.432Z,296.0320
2023-05-06T12:00:31.715Z,286.0901
2023-05-06T12:01:31.992Z,274.6646
2023-05-06T12:02:32.763Z,268.8227
2023-05-06T12:03:34.738Z,261.2946
2023-05-06T12:04:34.952Z,264.5089
2023-05-06T12:05:36.414Z,324.3750
2023-05-06T12:07:36.017Z,732.0349
2023-05-06T12:08:36.036Z,1253.5479
2023-05-06T12:09:36.117Z,1079.0844
2023-05-06T12:10:37.137Z,985.1599
2023-05-06T12:11:37.218Z,1101.9642
2023-05-06T12:12:37.963Z,807.6453
2023-05-06T12:13:38.953Z,772.0640
2023-05-06T12:14:39.245Z,817.4564
2023-05-06T12:15:39.832Z,1012.6308
2023-05-06T12:16:40.114Z,851.7297
2023-05-06T12:18:44.137Z,1221.0000
2023-05-06T12:19:45.399Z,2044.1761
2023-05-06T12:20:45.851Z,2033.6337
2023-05-06T12:21:45.909Z,2058.7500
2023-05-06T12:22:46.321Z,2030.3572
2023-05-06T12:23:48.535Z,1629.3324
2023-05-06T12:25:36.641Z,2195.3125
2023-05-06T12:26:37.770Z,2326.3953
2023-05-06T12:27:38.135Z,2352.4272
2023-05-06T12:28:38.420Z,2426.3372
2023-05-06T12:29:39.392Z,2360.8381
2023-05-06T12:30:40.721Z,2321.8467
2023-05-06T12:31:41.998Z,2343.0681